sensor_id;sensor_type;location;lat;lon;timestamp;P1;durP1;ratioP1;P2;durP2;ratioP2
9807;SDS011;4943;52.550;13.462;2023-05-18T00:02:22;101.13;;;76.40;;
9807;SDS011;4943;52.550;13.462;2023-05-18T00:04:53;101.90;;;82.83;;
9807;SDS011;4943;52.550;13.462;2023-05-18T00:07:21;102.57;;;80.13;;
9807;SDS011;4943;52.550;13.462;2023-05-18T00:09:49;98.73;;;77.57;;
9807;SDS011;4943;52.550;13.462;2023-05-18T00:12:17;100.23;;;75.87;;
9807;SDS011;4943;52.550;13.462;2023-05-18T00:14:45;91.67;;;74.60;;
9807;SDS011;4943;52.550;13.462;2023-05-18T00:17:13;101.83;;;78.97;;
9807;SDS011;4943;52.550;13.462;2023-05-18T00:19:41;103.07;;;78.90;;
9807;SDS011;4943;52.550;13.462;2023-05-18T00:22:13;93.83;;;73.90;;
9807;SDS011;4943;52.550;13.462;2023-05-18T00:24:44;99.80;;;76.93;;
9807;SDS011;4943;52.550;13.462;2023-05-18T00:27:12;104.63;;;81.70;;
9807;SDS011;4943;52.550;13.462;2023-05-18T00:29:40;102.30;;;80.53;;
9807;SDS011;4943;52.550;13.462;2023-05-18T00:32:08;82.90;;;72.40;;
9807;SDS011;4943;52.550;13.462;2023-05-18T00:34:37;86.67;;;69.47;;
9807;SDS011;4943;52.550;13.462;2023-05-18T00:37:05;83.67;;;68.93;;
9807;SDS011;4943;52.550;13.462;2023-05-18T00:39:34;77.20;;;65.97;;
9807;SDS011;4943;52.550;13.462;2023-05-18T00:42:02;84.63;;;70.80;;
9807;SDS011;4943;52.550;13.462;2023-05-18T00:44:31;80.33;;;67.27;;
9807;SDS011;4943;52.550;13.462;2023-05-18T00:46:59;82.00;;;68.83;;
9807;SDS011;4943;52.550;13.462;2023-05-18T00:49:27;78.93;;;65.00;;
9807;SDS011;4943;52.550;13.462;2023-05-18T00:51:55;81.80;;;68.03;;
9807;SDS011;4943;52.550;13.462;2023-05-18T00:54:23;69.87;;;61.20;;
9807;SDS011;4943;52.550;13.462;2023-05-18T00:56:54;69.53;;;61.43;;
9807;SDS011;4943;52.550;13.462;2023-05-18T00:59:22;75.83;;;64.23;;
9807;SDS011;4943;52.550;13.462;2023-05-18T01:01:50;74.00;;;62.80;;
9807;SDS011;4943;52.550;13.462;2023-05-18T01:04:18;77.23;;;65.23;;
9807;SDS011;4943;52.550;13.462;2023-05-18T01:06:46;74.13;;;63.57;;
9807;SDS011;4943;52.550;13.462;2023-05-18T01:09:15;72.10;;;62.00;;
9807;SDS011;4943;52.550;13.462;2023-05-18T01:11:48;70.53;;;62.17;;
9807;SDS011;4943;52.550;13.462;2023-05-18T01:14:24;74.47;;;62.13;;
9807;SDS011;4943;52.550;13.462;2023-05-18T01:17:04;47.13;;;42.47;;
9807;SDS011;4943;52.550;13.462;2023-05-18T01:19:44;67.37;;;57.40;;
9807;SDS011;4943;52.550;13.462;2023-05-18T01:22:32;70.87;;;59.13;;
9807;SDS011;4943;52.550;13.462;2023-05-18T01:25:09;1.30;;;1.20;;
9807;SDS011;4943;52.550;13.462;2023-05-18T01:27:46;58.17;;;51.87;;
9807;SDS011;4943;52.550;13.462;2023-05-18T01:30:15;74.13;;;58.90;;
9807;SDS011;4943;52.550;13.462;2023-05-18T01:32:44;62.00;;;55.23;;
9807;SDS011;4943;52.550;13.462;2023-05-18T01:35:12;78.90;;;65.33;;
9807;SDS011;4943;52.550;13.462;2023-05-18T01:37:40;50.43;;;45.43;;
9807;SDS011;4943;52.550;13.462;2023-05-18T01:40:09;50.67;;;45.53;;
9807;SDS011;4943;52.550;13.462;2023-05-18T01:42:40;56.70;;;49.70;;
9807;SDS011;4943;52.550;13.462;2023-05-18T01:45:19;68.77;;;58.37;;
9807;SDS011;4943;52.550;13.462;2023-05-18T01:47:49;79.93;;;64.23;;
9807;SDS011;4943;52.550;13.462;2023-05-18T01:50:24;72.20;;;58.47;;
9807;SDS011;4943;52.550;13.462;2023-05-18T01:52:59;54.03;;;48.50;;
9807;SDS011;4943;52.550;13.462;2023-05-18T01:55:32;62.97;;;52.93;;
9807;SDS011;4943;52.550;13.462;2023-05-18T01:58:05;53.57;;;47.87;;
9807;SDS011;4943;52.550;13.462;2023-05-18T02:00:35;52.43;;;46.83;;
9807;SDS011;4943;52.550;13.462;2023-05-18T02:03:04;58.07;;;51.57;;
9807;SDS011;4943;52.550;13.462;2023-05-18T02:05:32;49.73;;;44.73;;
9807;SDS011;4943;52.550;13.462;2023-05-18T02:08:00;59.27;;;51.83;;
9807;SDS011;4943;52.550;13.462;2023-05-18T02:10:28;60.37;;;51.57;;
9807;SDS011;4943;52.550;13.462;2023-05-18T02:12:56;40.40;;;36.60;;
9807;SDS011;4943;52.550;13.462;2023-05-18T02:15:24;58.43;;;51.90;;
9807;SDS011;4943;52.550;13.462;2023-05-18T02:17:54;58.30;;;50.33;;
9807;SDS011;4943;52.550;13.462;2023-05-18T02:20:23;57.20;;;48.83;;
9807;SDS011;4943;52.550;13.462;2023-05-18T02:22:55;55.40;;;49.17;;
9807;SDS011;4943;52.550;13.462;2023-05-18T02:25:23;51.07;;;45.90;;
9807;SDS011;4943;52.550;13.462;2023-05-18T02:27:51;59.27;;;50.70;;
9807;SDS011;4943;52.550;13.462;2023-05-18T02:30:19;58.40;;;50.97;;
9807;SDS011;4943;52.550;13.462;2023-05-18T02:32:47;52.83;;;47.30;;
9807;SDS011;4943;52.550;13.462;2023-05-18T02:35:17;56.27;;;48.73;;
9807;SDS011;4943;52.550;13.462;2023-05-18T02:37:46;63.23;;;54.47;;
9807;SDS011;4943;52.550;13.462;2023-05-18T02:40:15;68.90;;;56.90;;
9807;SDS011;4943;52.550;13.462;2023-05-18T02:42:43;61.40;;;51.60;;
9807;SDS011;4943;52.550;13.462;2023-05-18T02:45:11;64.37;;;53.10;;
9807;SDS011;4943;52.550;13.462;2023-05-18T02:47:39;65.60;;;55.60;;
9807;SDS011;4943;52.550;13.462;2023-05-18T02:50:09;69.00;;;55.37;;
9807;SDS011;4943;52.550;13.462;2023-05-18T02:52:39;64.07;;;55.73;;
9807;SDS011;4943;52.550;13.462;2023-05-18T02:55:07;57.03;;;50.83;;
9807;SDS011;4943;52.550;13.462;2023-05-18T02:57:36;65.83;;;55.90;;
9807;SDS011;4943;52.550;13.462;2023-05-18T03:00:04;64.00;;;54.23;;
9807;SDS011;4943;52.550;13.462;2023-05-18T03:02:36;53.87;;;47.70;;
9807;SDS011;4943;52.550;13.462;2023-05-18T03:05:06;36.50;;;33.23;;
9807;SDS011;4943;52.550;13.462;2023-05-18T03:07:34;56.73;;;49.70;;
9807;SDS011;4943;52.550;13.462;2023-05-18T03:10:04;50.37;;;44.97;;
9807;SDS011;4943;52.550;13.462;2023-05-18T03:12:34;63.60;;;54.53;;
9807;SDS011;4943;52.550;13.462;2023-05-18T03:15:02;58.50;;;51.93;;
9807;SDS011;4943;52.550;13.462;2023-05-18T03:17:30;60.73;;;53.07;;
9807;SDS011;4943;52.550;13.462;2023-05-18T03:19:59;70.20;;;57.43;;
9807;SDS011;4943;52.550;13.462;2023-05-18T03:22:30;68.37;;;54.97;;
9807;SDS011;4943;52.550;13.462;2023-05-18T03:24:58;63.77;;;52.60;;
9807;SDS011;4943;52.550;13.462;2023-05-18T03:27:29;64.40;;;55.27;;
9807;SDS011;4943;52.550;13.462;2023-05-18T03:29:57;55.50;;;48.77;;
9807;SDS011;4943;52.550;13.462;2023-05-18T03:32:25;62.60;;;53.93;;
9807;SDS011;4943;52.550;13.462;2023-05-18T03:34:53;60.27;;;51.80;;
9807;SDS011;4943;52.550;13.462;2023-05-18T03:37:21;64.70;;;54.43;;
9807;SDS011;4943;52.550;13.462;2023-05-18T03:39:49;66.37;;;55.10;;
9807;SDS011;4943;52.550;13.462;2023-05-18T03:42:17;68.90;;;55.87;;
9807;SDS011;4943;52.550;13.462;2023-05-18T03:44:47;69.53;;;56.13;;
9807;SDS011;4943;52.550;13.462;2023-05-18T03:47:15;63.60;;;54.20;;
9807;SDS011;4943;52.550;13.462;2023-05-18T03:49:43;62.60;;;52.57;;
9807;SDS011;4943;52.550;13.462;2023-05-18T03:52:11;62.87;;;54.03;;
9807;SDS011;4943;52.550;13.462;2023-05-18T03:54:41;70.80;;;55.87;;
9807;SDS011;4943;52.550;13.462;2023-05-18T03:57:09;66.47;;;55.80;;
9807;SDS011;4943;52.550;13.462;2023-05-18T03:59:37;67.00;;;57.57;;
9807;SDS011;4943;52.550;13.462;2023-05-18T04:02:06;67.73;;;56.67;;
9807;SDS011;4943;52.550;13.462;2023-05-18T04:04:35;62.83;;;54.10;;
9807;SDS011;4943;52.550;13.462;2023-05-18T04:07:03;72.40;;;61.07;;
9807;SDS011;4943;52.550;13.462;2023-05-18T04:09:32;74.80;;;60.07;;
9807;SDS011;4943;52.550;13.462;2023-05-18T04:12:00;71.73;;;56.83;;
9807;SDS011;4943;52.550;13.462;2023-05-18T04:14:28;67.40;;;57.07;;
9807;SDS011;4943;52.550;13.462;2023-05-18T04:16:58;72.67;;;58.77;;
9807;SDS011;4943;52.550;13.462;2023-05-18T04:19:31;75.47;;;60.93;;
9807;SDS011;4943;52.550;13.462;2023-05-18T04:22:00;74.87;;;59.87;;
9807;SDS011;4943;52.550;13.462;2023-05-18T04:24:30;79.30;;;67.03;;
9807;SDS011;4943;52.550;13.462;2023-05-18T04:26:59;69.63;;;61.33;;
9807;SDS011;4943;52.550;13.462;2023-05-18T04:29:28;74.57;;;62.03;;
9807;SDS011;4943;52.550;13.462;2023-05-18T04:31:57;70.23;;;60.40;;
9807;SDS011;4943;52.550;13.462;2023-05-18T04:34:26;73.63;;;60.50;;
9807;SDS011;4943;52.550;13.462;2023-05-18T04:36:56;77.57;;;64.80;;
9807;SDS011;4943;52.550;13.462;2023-05-18T04:39:24;73.63;;;59.40;;
9807;SDS011;4943;52.550;13.462;2023-05-18T04:41:52;74.80;;;60.30;;
9807;SDS011;4943;52.550;13.462;2023-05-18T04:44:23;74.97;;;60.83;;
9807;SDS011;4943;52.550;13.462;2023-05-18T04:46:52;76.20;;;61.93;;
9807;SDS011;4943;52.550;13.462;2023-05-18T04:49:20;73.67;;;62.10;;
9807;SDS011;4943;52.550;13.462;2023-05-18T04:51:49;74.10;;;62.27;;
9807;SDS011;4943;52.550;13.462;2023-05-18T04:54:22;67.00;;;59.00;;
9807;SDS011;4943;52.550;13.462;2023-05-18T04:56:51;82.33;;;64.07;;
9807;SDS011;4943;52.550;13.462;2023-05-18T04:59:19;73.73;;;61.70;;
9807;SDS011;4943;52.550;13.462;2023-05-18T05:01:51;79.87;;;65.00;;
9807;SDS011;4943;52.550;13.462;2023-05-18T05:04:20;80.53;;;62.97;;
9807;SDS011;4943;52.550;13.462;2023-05-18T05:06:48;75.53;;;62.77;;
9807;SDS011;4943;52.550;13.462;2023-05-18T05:09:16;78.67;;;64.13;;
9807;SDS011;4943;52.550;13.462;2023-05-18T05:11:46;79.83;;;67.30;;
9807;SDS011;4943;52.550;13.462;2023-05-18T05:14:14;72.50;;;61.67;;
9807;SDS011;4943;52.550;13.462;2023-05-18T05:16:42;70.73;;;61.20;;
9807;SDS011;4943;52.550;13.462;2023-05-18T05:19:10;66.33;;;58.67;;
9807;SDS011;4943;52.550;13.462;2023-05-18T05:21:38;75.63;;;66.93;;
9807;SDS011;4943;52.550;13.462;2023-05-18T05:24:06;70.87;;;59.77;;
9807;SDS011;4943;52.550;13.462;2023-05-18T05:26:34;80.93;;;63.37;;
9807;SDS011;4943;52.550;13.462;2023-05-18T05:29:04;73.07;;;61.23;;
9807;SDS011;4943;52.550;13.462;2023-05-18T05:31:32;69.77;;;62.37;;
9807;SDS011;4943;52.550;13.462;2023-05-18T05:34:00;78.23;;;64.40;;
9807;SDS011;4943;52.550;13.462;2023-05-18T05:36:28;78.57;;;65.87;;
9807;SDS011;4943;52.550;13.462;2023-05-18T05:38:57;67.10;;;59.20;;
9807;SDS011;4943;52.550;13.462;2023-05-18T05:41:25;70.77;;;63.10;;
9807;SDS011;4943;52.550;13.462;2023-05-18T05:43:53;78.27;;;65.37;;
9807;SDS011;4943;52.550;13.462;2023-05-18T05:46:23;70.10;;;62.57;;
9807;SDS011;4943;52.550;13.462;2023-05-18T05:48:51;72.83;;;62.30;;
9807;SDS011;4943;52.550;13.462;2023-05-18T05:51:19;73.00;;;63.10;;
9807;SDS011;4943;52.550;13.462;2023-05-18T05:53:47;74.03;;;65.60;;
9807;SDS011;4943;52.550;13.462;2023-05-18T05:56:15;81.73;;;69.13;;
9807;SDS011;4943;52.550;13.462;2023-05-18T05:58:43;77.20;;;69.17;;
9807;SDS011;4943;52.550;13.462;2023-05-18T06:01:11;76.57;;;67.87;;
9807;SDS011;4943;52.550;13.462;2023-05-18T06:03:41;72.27;;;64.77;;
9807;SDS011;4943;52.550;13.462;2023-05-18T06:06:11;74.97;;;67.13;;
9807;SDS011;4943;52.550;13.462;2023-05-18T06:08:39;80.23;;;70.57;;
9807;SDS011;4943;52.550;13.462;2023-05-18T06:11:07;79.17;;;69.13;;
9807;SDS011;4943;52.550;13.462;2023-05-18T06:13:36;75.33;;;66.30;;
9807;SDS011;4943;52.550;13.462;2023-05-18T06:16:05;82.83;;;71.23;;
9807;SDS011;4943;52.550;13.462;2023-05-18T06:18:33;82.40;;;71.20;;
9807;SDS011;4943;52.550;13.462;2023-05-18T06:21:03;3.97;;;1.77;;
9807;SDS011;4943;52.550;13.462;2023-05-18T06:23:31;77.27;;;69.40;;
9807;SDS011;4943;52.550;13.462;2023-05-18T06:25:59;82.27;;;73.13;;
9807;SDS011;4943;52.550;13.462;2023-05-18T06:28:27;105.50;;;87.30;;
9807;SDS011;4943;52.550;13.462;2023-05-18T06:30:55;104.97;;;84.73;;
9807;SDS011;4943;52.550;13.462;2023-05-18T06:33:23;115.37;;;89.93;;
9807;SDS011;4943;52.550;13.462;2023-05-18T06:35:51;109.77;;;92.03;;
9807;SDS011;4943;52.550;13.462;2023-05-18T06:38:21;100.83;;;86.00;;
9807;SDS011;4943;52.550;13.462;2023-05-18T06:40:49;116.63;;;94.83;;
9807;SDS011;4943;52.550;13.462;2023-05-18T06:43:17;127.43;;;97.53;;
9807;SDS011;4943;52.550;13.462;2023-05-18T06:45:45;129.13;;;102.47;;
9807;SDS011;4943;52.550;13.462;2023-05-18T06:48:13;132.10;;;104.57;;
9807;SDS011;4943;52.550;13.462;2023-05-18T06:50:41;123.27;;;100.13;;
9807;SDS011;4943;52.550;13.462;2023-05-18T06:53:09;121.70;;;101.00;;
9807;SDS011;4943;52.550;13.462;2023-05-18T06:55:40;140.03;;;106.17;;
9807;SDS011;4943;52.550;13.462;2023-05-18T06:58:08;127.67;;;103.03;;
9807;SDS011;4943;52.550;13.462;2023-05-18T07:00:36;142.43;;;109.57;;
9807;SDS011;4943;52.550;13.462;2023-05-18T07:03:05;130.90;;;103.80;;
9807;SDS011;4943;52.550;13.462;2023-05-18T07:05:33;101.57;;;90.67;;
9807;SDS011;4943;52.550;13.462;2023-05-18T07:08:04;136.17;;;107.60;;
9807;SDS011;4943;52.550;13.462;2023-05-18T07:10:33;139.67;;;110.10;;
9807;SDS011;4943;52.550;13.462;2023-05-18T07:13:03;145.77;;;114.47;;
9807;SDS011;4943;52.550;13.462;2023-05-18T07:15:31;146.30;;;111.87;;
9807;SDS011;4943;52.550;13.462;2023-05-18T07:18:00;147.77;;;115.00;;
9807;SDS011;4943;52.550;13.462;2023-05-18T07:20:28;151.53;;;120.33;;
9807;SDS011;4943;52.550;13.462;2023-05-18T07:22:57;151.53;;;115.00;;
9807;SDS011;4943;52.550;13.462;2023-05-18T07:25:25;146.53;;;116.97;;
9807;SDS011;4943;52.550;13.462;2023-05-18T07:27:53;143.33;;;114.77;;
9807;SDS011;4943;52.550;13.462;2023-05-18T07:30:23;147.13;;;117.60;;
9807;SDS011;4943;52.550;13.462;2023-05-18T07:32:52;147.20;;;115.67;;
9807;SDS011;4943;52.550;13.462;2023-05-18T07:35:21;150.53;;;115.60;;
9807;SDS011;4943;52.550;13.462;2023-05-18T07:37:51;152.33;;;121.93;;
9807;SDS011;4943;52.550;13.462;2023-05-18T07:40:19;142.60;;;119.90;;
9807;SDS011;4943;52.550;13.462;2023-05-18T07:42:48;157.20;;;124.40;;
9807;SDS011;4943;52.550;13.462;2023-05-18T07:45:16;158.23;;;124.50;;
9807;SDS011;4943;52.550;13.462;2023-05-18T07:47:45;143.40;;;124.13;;
9807;SDS011;4943;52.550;13.462;2023-05-18T07:50:13;147.40;;;129.87;;
9807;SDS011;4943;52.550;13.462;2023-05-18T07:52:42;156.40;;;137.20;;
9807;SDS011;4943;52.550;13.462;2023-05-18T07:55:10;166.33;;;147.77;;
9807;SDS011;4943;52.550;13.462;2023-05-18T07:57:38;166.93;;;147.90;;
9807;SDS011;4943;52.550;13.462;2023-05-18T08:00:07;172.73;;;154.77;;
9807;SDS011;4943;52.550;13.462;2023-05-18T08:02:35;176.97;;;159.03;;
9807;SDS011;4943;52.550;13.462;2023-05-18T08:05:05;199.20;;;178.67;;
9807;SDS011;4943;52.550;13.462;2023-05-18T08:07:36;218.23;;;195.60;;
9807;SDS011;4943;52.550;13.462;2023-05-18T08:10:04;227.53;;;204.07;;
9807;SDS011;4943;52.550;13.462;2023-05-18T08:12:33;242.63;;;215.13;;
9807;SDS011;4943;52.550;13.462;2023-05-18T08:15:01;264.00;;;235.57;;
9807;SDS011;4943;52.550;13.462;2023-05-18T08:17:29;273.17;;;238.20;;
9807;SDS011;4943;52.550;13.462;2023-05-18T08:19:57;270.70;;;240.73;;
9807;SDS011;4943;52.550;13.462;2023-05-18T08:22:26;267.83;;;236.83;;
9807;SDS011;4943;52.550;13.462;2023-05-18T08:24:54;260.43;;;231.27;;
9807;SDS011;4943;52.550;13.462;2023-05-18T08:27:23;280.83;;;260.52;;
9807;SDS011;4943;52.550;13.462;2023-05-18T08:29:51;309.23;;;251.83;;
9807;SDS011;4943;52.550;13.462;2023-05-18T08:32:21;303.23;;;243.47;;
9807;SDS011;4943;52.550;13.462;2023-05-18T08:34:49;278.13;;;230.77;;
9807;SDS011;4943;52.550;13.462;2023-05-18T08:37:17;272.63;;;226.13;;
9807;SDS011;4943;52.550;13.462;2023-05-18T08:39:46;272.43;;;225.60;;
9807;SDS011;4943;52.550;13.462;2023-05-18T08:42:15;250.83;;;222.30;;
9807;SDS011;4943;52.550;13.462;2023-05-18T08:44:55;242.60;;;210.77;;
9807;SDS011;4943;52.550;13.462;2023-05-18T08:47:32;248.40;;;212.17;;
9807;SDS011;4943;52.550;13.462;2023-05-18T08:50:03;238.00;;;210.37;;
9807;SDS011;4943;52.550;13.462;2023-05-18T08:52:34;220.60;;;197.33;;
9807;SDS011;4943;52.550;13.462;2023-05-18T08:55:05;220.75;;;198.52;;
9807;SDS011;4943;52.550;13.462;2023-05-18T08:57:38;199.88;;;181.35;;
9807;SDS011;4943;52.550;13.462;2023-05-18T09:00:09;206.45;;;185.93;;
9807;SDS011;4943;52.550;13.462;2023-05-18T09:02:38;215.03;;;193.57;;
9807;SDS011;4943;52.550;13.462;2023-05-18T09:05:08;207.55;;;187.65;;
9807;SDS011;4943;52.550;13.462;2023-05-18T09:07:37;222.57;;;201.30;;
9807;SDS011;4943;52.550;13.462;2023-05-18T09:10:10;243.93;;;218.73;;
9807;SDS011;4943;52.550;13.462;2023-05-18T09:12:40;241.23;;;219.73;;
9807;SDS011;4943;52.550;13.462;2023-05-18T09:15:09;229.00;;;208.40;;
9807;SDS011;4943;52.550;13.462;2023-05-18T09:17:37;251.90;;;229.65;;
9807;SDS011;4943;52.550;13.462;2023-05-18T09:20:06;273.40;;;247.57;;
9807;SDS011;4943;52.550;13.462;2023-05-18T09:22:35;292.67;;;265.38;;
9807;SDS011;4943;52.550;13.462;2023-05-18T09:27:36;285.13;;;257.77;;
9807;SDS011;4943;52.550;13.462;2023-05-18T09:30:08;286.90;;;260.05;;
9807;SDS011;4943;52.550;13.462;2023-05-18T09:32:37;302.92;;;272.10;;
9807;SDS011;4943;52.550;13.462;2023-05-18T09:35:06;313.95;;;283.17;;
9807;SDS011;4943;52.550;13.462;2023-05-18T09:37:35;320.17;;;286.73;;
9807;SDS011;4943;52.550;13.462;2023-05-18T09:40:07;327.60;;;294.10;;
9807;SDS011;4943;52.550;13.462;2023-05-18T09:42:38;322.88;;;291.65;;
9807;SDS011;4943;52.550;13.462;2023-05-18T09:45:14;336.02;;;301.20;;
9807;SDS011;4943;52.550;13.462;2023-05-18T09:47:44;339.27;;;304.75;;
9807;SDS011;4943;52.550;13.462;2023-05-18T09:50:12;338.85;;;304.17;;
9807;SDS011;4943;52.550;13.462;2023-05-18T09:52:40;343.58;;;308.20;;
9807;SDS011;4943;52.550;13.462;2023-05-18T09:55:09;344.42;;;308.55;;
9807;SDS011;4943;52.550;13.462;2023-05-18T09:57:39;341.63;;;304.92;;
9807;SDS011;4943;52.550;13.462;2023-05-18T10:00:09;337.60;;;302.05;;
9807;SDS011;4943;52.550;13.462;2023-05-18T10:02:38;332.55;;;297.83;;
9807;SDS011;4943;52.550;13.462;2023-05-18T10:05:17;325.58;;;289.23;;
9807;SDS011;4943;52.550;13.462;2023-05-18T10:07:46;332.65;;;280.88;;
9807;SDS011;4943;52.550;13.462;2023-05-18T10:10:16;318.92;;;277.83;;
9807;SDS011;4943;52.550;13.462;2023-05-18T10:12:47;315.90;;;272.48;;
9807;SDS011;4943;52.550;13.462;2023-05-18T10:15:18;318.90;;;268.87;;
9807;SDS011;4943;52.550;13.462;2023-05-18T10:17:47;301.70;;;268.23;;
9807;SDS011;4943;52.550;13.462;2023-05-18T10:20:17;299.05;;;264.10;;
9807;SDS011;4943;52.550;13.462;2023-05-18T10:22:49;299.50;;;265.23;;
9807;SDS011;4943;52.550;13.462;2023-05-18T10:25:18;305.50;;;272.67;;
9807;SDS011;4943;52.550;13.462;2023-05-18T10:27:49;318.33;;;284.75;;
9807;SDS011;4943;52.550;13.462;2023-05-18T10:30:22;332.30;;;297.65;;
9807;SDS011;4943;52.550;13.462;2023-05-18T10:32:52;350.60;;;313.98;;
9807;SDS011;4943;52.550;13.462;2023-05-18T10:35:23;364.98;;;327.13;;
9807;SDS011;4943;52.550;13.462;2023-05-18T10:37:54;361.17;;;322.95;;
9807;SDS011;4943;52.550;13.462;2023-05-18T10:40:23;358.27;;;320.25;;
9807;SDS011;4943;52.550;13.462;2023-05-18T10:42:56;350.38;;;315.60;;
9807;SDS011;4943;52.550;13.462;2023-05-18T10:45:26;343.80;;;306.50;;
9807;SDS011;4943;52.550;13.462;2023-05-18T10:47:55;325.42;;;288.85;;
9807;SDS011;4943;52.550;13.462;2023-05-18T10:50:26;322.10;;;288.60;;
9807;SDS011;4943;52.550;13.462;2023-05-18T10:52:56;324.75;;;290.05;;
9807;SDS011;4943;52.550;13.462;2023-05-18T10:55:26;321.67;;;288.67;;
9807;SDS011;4943;52.550;13.462;2023-05-18T10:57:56;327.70;;;293.45;;
9807;SDS011;4943;52.550;13.462;2023-05-18T11:00:29;326.90;;;294.00;;
9807;SDS011;4943;52.550;13.462;2023-05-18T11:03:01;331.48;;;298.13;;
9807;SDS011;4943;52.550;13.462;2023-05-18T11:05:31;331.85;;;299.35;;
9807;SDS011;4943;52.550;13.462;2023-05-18T11:07:59;331.63;;;299.23;;
9807;SDS011;4943;52.550;13.462;2023-05-18T11:10:32;332.90;;;301.70;;
9807;SDS011;4943;52.550;13.462;2023-05-18T11:13:02;340.13;;;307.90;;
9807;SDS011;4943;52.550;13.462;2023-05-18T11:18:43;351.55;;;318.70;;
9807;SDS011;4943;52.550;13.462;2023-05-18T11:21:28;363.67;;;329.55;;
9807;SDS011;4943;52.550;13.462;2023-05-18T11:24:17;375.20;;;339.48;;
9807;SDS011;4943;52.550;13.462;2023-05-18T11:26:48;388.77;;;350.67;;
9807;SDS011;4943;52.550;13.462;2023-05-18T11:29:20;407.58;;;369.38;;
9807;SDS011;4943;52.550;13.462;2023-05-18T11:31:50;284.98;;;262.60;;
9807;SDS011;4943;52.550;13.462;2023-05-18T11:34:39;421.98;;;386.45;;
9807;SDS011;4943;52.550;13.462;2023-05-18T11:37:10;447.27;;;407.48;;
9807;SDS011;4943;52.550;13.462;2023-05-18T11:39:39;445.65;;;404.27;;
9807;SDS011;4943;52.550;13.462;2023-05-18T11:42:30;432.38;;;395.05;;
9807;SDS011;4943;52.550;13.462;2023-05-18T11:45:05;445.00;;;403.27;;
9807;SDS011;4943;52.550;13.462;2023-05-18T11:47:34;437.52;;;397.45;;
9807;SDS011;4943;52.550;13.462;2023-05-18T11:50:05;428.45;;;388.50;;
9807;SDS011;4943;52.550;13.462;2023-05-18T11:52:43;416.75;;;379.15;;
9807;SDS011;4943;52.550;13.462;2023-05-18T11:55:13;394.85;;;360.00;;
9807;SDS011;4943;52.550;13.462;2023-05-18T11:57:42;388.67;;;353.33;;
9807;SDS011;4943;52.550;13.462;2023-05-18T12:00:15;375.00;;;341.52;;
9807;SDS011;4943;52.550;13.462;2023-05-18T12:02:46;367.33;;;334.60;;
9807;SDS011;4943;52.550;13.462;2023-05-18T12:05:15;363.13;;;329.38;;
9807;SDS011;4943;52.550;13.462;2023-05-18T12:07:44;358.05;;;326.80;;
9807;SDS011;4943;52.550;13.462;2023-05-18T12:10:19;349.70;;;319.35;;
9807;SDS011;4943;52.550;13.462;2023-05-18T12:12:48;367.38;;;334.77;;
9807;SDS011;4943;52.550;13.462;2023-05-18T12:15:21;295.42;;;274.55;;
9807;SDS011;4943;52.550;13.462;2023-05-18T12:17:50;368.95;;;339.58;;
9807;SDS011;4943;52.550;13.462;2023-05-18T12:20:19;405.17;;;369.60;;
9807;SDS011;4943;52.550;13.462;2023-05-18T12:22:50;417.80;;;381.83;;
9807;SDS011;4943;52.550;13.462;2023-05-18T12:25:20;429.58;;;390.98;;
9807;SDS011;4943;52.550;13.462;2023-05-18T12:27:50;430.00;;;391.67;;
9807;SDS011;4943;52.550;13.462;2023-05-18T12:30:19;437.00;;;398.27;;
9807;SDS011;4943;52.550;13.462;2023-05-18T12:32:50;430.13;;;390.50;;
9807;SDS011;4943;52.550;13.462;2023-05-18T12:35:20;417.58;;;379.98;;
9807;SDS011;4943;52.550;13.462;2023-05-18T12:37:48;413.25;;;375.90;;
9807;SDS011;4943;52.550;13.462;2023-05-18T12:40:17;408.52;;;371.45;;
9807;SDS011;4943;52.550;13.462;2023-05-18T12:42:49;401.75;;;365.45;;
9807;SDS011;4943;52.550;13.462;2023-05-18T12:45:20;399.50;;;363.67;;
9807;SDS011;4943;52.550;13.462;2023-05-18T12:47:49;401.45;;;365.95;;
9807;SDS011;4943;52.550;13.462;2023-05-18T12:50:20;415.85;;;378.92;;
9807;SDS011;4943;52.550;13.462;2023-05-18T12:52:48;429.27;;;391.58;;
9807;SDS011;4943;52.550;13.462;2023-05-18T12:55:17;432.85;;;396.75;;
9807;SDS011;4943;52.550;13.462;2023-05-18T12:57:57;437.40;;;398.90;;
9807;SDS011;4943;52.550;13.462;2023-05-18T13:00:28;429.35;;;391.38;;
9807;SDS011;4943;52.550;13.462;2023-05-18T13:03:04;426.48;;;389.02;;
9807;SDS011;4943;52.550;13.462;2023-05-18T13:05:32;426.10;;;390.70;;
9807;SDS011;4943;52.550;13.462;2023-05-18T13:08:00;434.40;;;396.63;;
9807;SDS011;4943;52.550;13.462;2023-05-18T13:10:29;429.88;;;394.20;;
9807;SDS011;4943;52.550;13.462;2023-05-18T13:12:58;430.42;;;394.35;;
9807;SDS011;4943;52.550;13.462;2023-05-18T13:15:35;445.15;;;409.17;;
9807;SDS011;4943;52.550;13.462;2023-05-18T13:18:04;441.63;;;405.98;;
9807;SDS011;4943;52.550;13.462;2023-05-18T13:20:38;459.55;;;421.15;;
9807;SDS011;4943;52.550;13.462;2023-05-18T13:23:07;459.83;;;421.77;;
9807;SDS011;4943;52.550;13.462;2023-05-18T13:25:37;444.27;;;410.42;;
9807;SDS011;4943;52.550;13.462;2023-05-18T13:28:05;443.88;;;408.20;;
9807;SDS011;4943;52.550;13.462;2023-05-18T13:30:37;410.88;;;379.75;;
9807;SDS011;4943;52.550;13.462;2023-05-18T13:33:06;432.83;;;398.10;;
9807;SDS011;4943;52.550;13.462;2023-05-18T13:35:34;424.77;;;391.02;;
9807;SDS011;4943;52.550;13.462;2023-05-18T13:38:02;422.13;;;389.73;;
9807;SDS011;4943;52.550;13.462;2023-05-18T13:40:31;435.92;;;399.23;;
9807;SDS011;4943;52.550;13.462;2023-05-18T13:42:59;413.73;;;381.42;;
9807;SDS011;4943;52.550;13.462;2023-05-18T13:45:27;418.95;;;386.02;;
9807;SDS011;4943;52.550;13.462;2023-05-18T13:47:57;421.13;;;388.25;;
9807;SDS011;4943;52.550;13.462;2023-05-18T13:50:26;421.45;;;388.63;;
9807;SDS011;4943;52.550;13.462;2023-05-18T13:52:54;436.58;;;400.88;;
9807;SDS011;4943;52.550;13.462;2023-05-18T13:55:22;429.30;;;394.48;;
9807;SDS011;4943;52.550;13.462;2023-05-18T13:57:50;439.25;;;403.35;;
9807;SDS011;4943;52.550;13.462;2023-05-18T14:00:18;425.75;;;392.60;;
9807;SDS011;4943;52.550;13.462;2023-05-18T14:02:47;435.42;;;398.90;;
9807;SDS011;4943;52.550;13.462;2023-05-18T14:05:16;433.23;;;397.00;;
9807;SDS011;4943;52.550;13.462;2023-05-18T14:07:44;428.38;;;395.15;;
9807;SDS011;4943;52.550;13.462;2023-05-18T14:10:12;445.05;;;409.98;;
9807;SDS011;4943;52.550;13.462;2023-05-18T14:12:40;432.08;;;398.20;;
9807;SDS011;4943;52.550;13.462;2023-05-18T14:15:09;424.95;;;391.60;;
9807;SDS011;4943;52.550;13.462;2023-05-18T14:17:39;426.20;;;391.95;;
9807;SDS011;4943;52.550;13.462;2023-05-18T14:20:08;413.63;;;381.13;;
9807;SDS011;4943;52.550;13.462;2023-05-18T14:22:38;411.38;;;378.83;;
9807;SDS011;4943;52.550;13.462;2023-05-18T14:25:06;420.15;;;386.40;;
9807;SDS011;4943;52.550;13.462;2023-05-18T14:27:34;381.15;;;353.75;;
9807;SDS011;4943;52.550;13.462;2023-05-18T14:30:03;431.17;;;397.67;;
9807;SDS011;4943;52.550;13.462;2023-05-18T14:32:32;420.35;;;387.45;;
9807;SDS011;4943;52.550;13.462;2023-05-18T14:35:00;430.33;;;398.38;;
9807;SDS011;4943;52.550;13.462;2023-05-18T14:37:28;433.80;;;401.38;;
9807;SDS011;4943;52.550;13.462;2023-05-18T14:39:59;461.98;;;425.80;;
9807;SDS011;4943;52.550;13.462;2023-05-18T14:42:27;456.70;;;421.83;;